Time;durP1;ratioP1;P1;durP2;ratioP2;P2;SDS_P1;SDS_P2;PMS_P1;PMS_P2;Temp;Humidity;BMP_temperature;BMP_pressure;BME280_temperature;BME280_humidity;BME280_pressure;Samples;Min_cycle;Max_cycle;Signal;HPM_P1;HPM_P2
2023/12/21 00:00:52;;;;;;;8.50;6.47;;;7.80;99.90;;;;;;5010919;28;20493;-81
2023/12/21 00:03:17;;;;;;;7.68;4.85;;;7.90;99.90;;;;;;4991573;28;20488;-80
2023/12/21 00:05:43;;;;;;;4.00;2.83;;;7.90;99.90;;;;;;4992555;28;20067;-81
2023/12/21 00:08:08;;;;;;;10.32;5.78;;;7.90;99.90;;;;;;5008964;28;20045;-80
2023/12/21 00:10:34;;;;;;;7.55;4.40;;;7.90;99.90;;;;;;4993222;28;20030;-81
2023/12/21 00:13:00;;;;;;;12.25;7.88;;;7.90;99.90;;;;;;5007335;28;20033;-80
2023/12/21 00:15:25;;;;;;;12.30;6.03;;;7.90;99.90;;;;;;5024071;28;20044;-80
2023/12/21 00:17:51;;;;;;;9.25;4.63;;;8.00;99.90;;;;;;5009424;28;20056;-80
2023/12/21 00:20:16;;;;;;;7.43;4.75;;;7.90;99.90;;;;;;4990961;28;20141;-81
2023/12/21 00:22:42;;;;;;;6.32;4.47;;;8.00;99.90;;;;;;5005844;28;20033;-80
2023/12/21 00:25:07;;;;;;;6.47;4.28;;;7.90;99.90;;;;;;5009333;28;20037;-80
2023/12/21 00:27:33;;;;;;;8.70;4.57;;;8.00;99.90;;;;;;4991036;28;20079;-81
2023/12/21 00:29:59;;;;;;;10.20;6.22;;;8.00;99.90;;;;;;4990908;28;20405;-81
2023/12/21 00:32:25;;;;;;;9.27;4.35;;;7.90;99.90;;;;;;5007020;28;20053;-81
2023/12/21 00:34:50;;;;;;;6.85;4.68;;;8.00;99.90;;;;;;4992083;28;20511;-82
2023/12/21 00:37:16;;;;;;;7.53;5.75;;;8.00;99.90;;;;;;4991813;28;20029;-81
2023/12/21 00:39:43;;;;;;;10.23;7.43;;;8.00;99.90;;;;;;5008519;28;20045;-82
2023/12/21 00:42:08;;;;;;;6.95;3.42;;;8.10;99.90;;;;;;4990716;28;20489;-81
2023/12/21 00:44:34;;;;;;;4.82;3.92;;;8.10;99.90;;;;;;4993046;28;20063;-81
2023/12/21 00:46:59;;;;;;;9.10;5.07;;;8.00;99.90;;;;;;5003903;28;20052;-81
2023/12/21 00:49:25;;;;;;;8.07;4.57;;;8.00;99.90;;;;;;5007036;28;20631;-81
2023/12/21 00:51:51;;;;;;;6.13;4.03;;;8.00;99.90;;;;;;4990291;28;20564;-81
2023/12/21 00:54:16;;;;;;;4.80;3.60;;;8.10;99.90;;;;;;5020683;28;20039;-81
2023/12/21 00:56:42;;;;;;;6.70;5.22;;;8.00;99.90;;;;;;5008672;28;20396;-81
2023/12/21 00:59:07;;;;;;;5.50;3.42;;;8.10;99.90;;;;;;5024763;28;20033;-81
2023/12/21 01:01:33;;;;;;;7.80;4.63;;;8.10;99.90;;;;;;5004893;28;20045;-81
2023/12/21 01:03:58;;;;;;;7.68;5.20;;;8.10;99.90;;;;;;5007832;28;20426;-81
2023/12/21 01:06:24;;;;;;;4.43;3.45;;;8.10;99.90;;;;;;5007752;28;20153;-81
2023/12/21 01:08:50;;;;;;;5.50;3.78;;;8.20;99.90;;;;;;4990571;28;20029;-81
2023/12/21 01:11:15;;;;;;;2.92;2.55;;;8.10;99.90;;;;;;5023835;28;20095;-81
2023/12/21 01:13:41;;;;;;;5.03;3.22;;;8.10;99.90;;;;;;5007101;28;20021;-81
2023/12/21 01:16:07;;;;;;;10.10;4.72;;;8.10;99.90;;;;;;5007366;28;20025;-81
2023/12/21 01:18:33;;;;;;;4.72;3.28;;;8.10;99.90;;;;;;4991415;28;20037;-82
2023/12/21 01:20:59;;;;;;;8.13;4.78;;;8.10;99.90;;;;;;5007713;28;20154;-81
2023/12/21 01:23:25;;;;;;;3.72;2.45;;;8.00;99.90;;;;;;4993200;28;20033;-81
2023/12/21 01:25:50;;;;;;;4.85;3.40;;;8.10;99.90;;;;;;4991285;28;20060;-81
2023/12/21 01:28:16;;;;;;;7.63;5.32;;;8.10;99.90;;;;;;5008325;28;20069;-81
2023/12/21 01:30:41;;;;;;;6.07;5.13;;;8.20;99.90;;;;;;4992210;28;20433;-81
2023/12/21 01:33:07;;;;;;;5.22;4.65;;;8.20;99.90;;;;;;4990002;28;20117;-81
2023/12/21 01:35:33;;;;;;;5.65;2.97;;;8.20;99.90;;;;;;5006979;28;20068;-81
2023/12/21 01:37:59;;;;;;;6.57;4.18;;;8.20;99.90;;;;;;5025034;28;20036;-81
2023/12/21 01:40:24;;;;;;;5.00;3.10;;;8.20;99.90;;;;;;5024612;28;20088;-81
2023/12/21 01:42:50;;;;;;;6.53;4.03;;;8.20;99.90;;;;;;5007112;28;20025;-82
2023/12/21 01:45:15;;;;;;;8.90;4.28;;;8.20;99.90;;;;;;5013780;28;20046;-81
2023/12/21 01:47:41;;;;;;;6.90;5.07;;;8.20;99.90;;;;;;5007485;28;20037;-82
2023/12/21 01:50:10;;;;;;;6.15;3.88;;;8.20;99.90;;;;;;5022062;28;20053;-81
2023/12/21 01:52:35;;;;;;;5.57;3.75;;;8.20;99.90;;;;;;4997596;28;20112;-82
2023/12/21 01:55:02;;;;;;;7.53;4.15;;;8.30;99.90;;;;;;4991856;28;20140;-81
2023/12/21 01:57:27;;;;;;;5.13;3.70;;;8.20;99.90;;;;;;5005901;28;20025;-81
2023/12/21 01:59:53;;;;;;;6.95;3.58;;;8.20;99.90;;;;;;5006589;28;20029;-81
2023/12/21 02:02:18;;;;;;;8.35;5.82;;;8.20;99.90;;;;;;4994878;28;20417;-82
2023/12/21 02:04:45;;;;;;;6.65;4.38;;;8.30;99.90;;;;;;5009739;28;20029;-82
2023/12/21 02:07:10;;;;;;;4.45;3.40;;;8.20;99.90;;;;;;4991737;28;20023;-81
2023/12/21 02:09:36;;;;;;;3.75;3.08;;;8.30;99.90;;;;;;5008082;28;20049;-82
2023/12/21 02:12:01;;;;;;;5.20;4.28;;;8.30;99.90;;;;;;5006609;28;20029;-81
2023/12/21 02:14:27;;;;;;;4.13;2.50;;;8.30;99.90;;;;;;5008281;28;20036;-81
2023/12/21 02:17:01;;;;;;;7.25;4.68;;;8.30;99.90;;;;;;5005302;28;20074;-81
2023/12/21 02:19:26;;;;;;;4.95;3.20;;;8.30;99.90;;;;;;5005956;28;20036;-81
2023/12/21 02:21:54;;;;;;;9.90;6.90;;;8.20;99.90;;;;;;4989335;28;20029;-82
2023/12/21 02:24:20;;;;;;;9.55;4.05;;;8.30;99.90;;;;;;5006201;28;20036;-81
2023/12/21 02:26:46;;;;;;;12.18;7.85;;;8.30;99.90;;;;;;4989540;28;20037;-81
2023/12/21 02:29:11;;;;;;;6.85;4.10;;;8.30;99.90;;;;;;5011839;28;20201;-81
2023/12/21 02:31:37;;;;;;;6.88;5.03;;;8.30;99.90;;;;;;5019981;28;20040;-82
2023/12/21 02:34:03;;;;;;;7.60;3.90;;;8.30;99.90;;;;;;5006187;28;20559;-81
2023/12/21 02:36:29;;;;;;;6.75;4.70;;;8.30;99.90;;;;;;5005250;28;20452;-82
2023/12/21 02:38:56;;;;;;;9.05;6.03;;;8.30;99.90;;;;;;4985880;28;20049;-81
2023/12/21 02:41:22;;;;;;;6.70;5.05;;;8.30;99.90;;;;;;5005112;28;20041;-82
2023/12/21 02:43:48;;;;;;;7.13;5.70;;;8.30;99.90;;;;;;5004521;28;20390;-81
2023/12/21 02:46:13;;;;;;;11.80;7.22;;;8.30;99.90;;;;;;4990422;28;20048;-82
2023/12/21 02:48:39;;;;;;;9.38;5.50;;;8.30;99.90;;;;;;5002920;28;20037;-81
2023/12/21 02:51:04;;;;;;;6.97;3.85;;;8.50;99.90;;;;;;5005163;28;20052;-82
2023/12/21 02:53:30;;;;;;;5.65;4.10;;;8.40;99.90;;;;;;5003710;28;20047;-82
2023/12/21 02:55:56;;;;;;;7.60;4.93;;;8.30;99.90;;;;;;5005888;28;20052;-81
2023/12/21 02:58:23;;;;;;;9.25;6.15;;;8.40;99.90;;;;;;5010625;28;20527;-82
2023/12/21 03:00:49;;;;;;;8.20;3.78;;;8.40;99.90;;;;;;5021071;28;20512;-81
2023/12/21 03:03:14;;;;;;;7.70;5.57;;;8.40;99.90;;;;;;5028262;28;20033;-81
2023/12/21 03:05:40;;;;;;;6.45;4.22;;;8.40;99.90;;;;;;5011580;28;20492;-82
2023/12/21 03:08:06;;;;;;;8.00;4.75;;;8.40;99.90;;;;;;5009607;28;20134;-82
2023/12/21 03:10:31;;;;;;;6.38;3.38;;;8.40;99.90;;;;;;5006050;28;20029;-82
2023/12/21 03:12:58;;;;;;;8.07;2.85;;;8.40;99.90;;;;;;5008674;28;20433;-82
2023/12/21 03:15:23;;;;;;;5.05;4.03;;;8.40;99.90;;;;;;5028904;28;20032;-81
2023/12/21 03:17:49;;;;;;;6.30;4.07;;;8.40;99.90;;;;;;5007138;28;20393;-81
2023/12/21 03:20:15;;;;;;;5.40;3.70;;;8.40;99.90;;;;;;5024770;28;20397;-81
2023/12/21 03:22:40;;;;;;;2.95;2.42;;;8.40;99.90;;;;;;4995670;28;21525;-82
2023/12/21 03:25:06;;;;;;;7.10;4.18;;;8.40;99.90;;;;;;5024086;28;20029;-82
2023/12/21 03:27:32;;;;;;;4.57;2.58;;;8.40;99.90;;;;;;5006260;28;20037;-81
2023/12/21 03:29:58;;;;;;;5.45;3.47;;;8.40;99.90;;;;;;5007529;28;20116;-81
2023/12/21 03:32:24;;;;;;;4.88;2.17;;;8.40;99.90;;;;;;4991015;28;20167;-81
2023/12/21 03:34:49;;;;;;;3.75;2.67;;;8.40;99.90;;;;;;5006844;28;20041;-80
2023/12/21 03:37:15;;;;;;;6.00;3.05;;;8.40;99.90;;;;;;5011417;28;20109;-82
2023/12/21 03:39:40;;;;;;;3.83;2.33;;;8.40;99.90;;;;;;4995809;28;20037;-81
2023/12/21 03:42:06;;;;;;;3.10;2.67;;;8.40;99.90;;;;;;5004997;28;20110;-82
2023/12/21 03:44:32;;;;;;;3.22;1.98;;;8.40;99.90;;;;;;4996368;28;20033;-81
2023/12/21 03:46:57;;;;;;;3.65;3.22;;;8.30;99.90;;;;;;5008440;28;20106;-81
2023/12/21 03:49:25;;;;;;;4.25;2.55;;;8.40;99.90;;;;;;4995599;28;20410;-80
2023/12/21 03:51:51;;;;;;;4.00;3.03;;;8.40;99.90;;;;;;5007213;28;20041;-81
2023/12/21 03:54:16;;;;;;;1.35;1.17;;;8.40;99.90;;;;;;4992918;28;20029;-81
2023/12/21 03:56:42;;;;;;;5.20;3.72;;;8.40;99.90;;;;;;5009929;28;20032;-81
2023/12/21 03:59:08;;;;;;;3.72;3.15;;;8.30;99.90;;;;;;4994591;28;20029;-80
2023/12/21 04:01:33;;;;;;;5.20;3.55;;;8.40;99.90;;;;;;5008037;28;20059;-81
2023/12/21 04:03:59;;;;;;;3.05;2.13;;;8.30;99.90;;;;;;5023338;28;20057;-80
2023/12/21 04:06:24;;;;;;;3.10;2.08;;;8.40;99.90;;;;;;4992677;28;20033;-80
2023/12/21 04:08:54;;;;;;;4.40;2.63;;;8.30;99.90;;;;;;5006535;28;20052;-81
2023/12/21 04:11:20;;;;;;;4.63;3.22;;;8.40;99.90;;;;;;4993381;28;21218;-81
2023/12/21 04:13:51;;;;;;;5.22;2.45;;;8.40;99.90;;;;;;5006360;28;20029;-81
2023/12/21 04:16:19;;;;;;;1.35;1.25;;;8.40;99.90;;;;;;4993281;28;20036;-81
2023/12/21 04:18:44;;;;;;;2.75;1.85;;;8.40;99.90;;;;;;5012258;28;20037;-81
2023/12/21 04:21:10;;;;;;;2.70;2.40;;;8.40;99.90;;;;;;5004598;28;20049;-81
2023/12/21 04:23:36;;;;;;;3.17;2.53;;;8.40;99.90;;;;;;5005629;28;20140;-81
2023/12/21 04:26:03;;;;;;;1.70;1.48;;;8.40;99.90;;;;;;5009268;28;20405;-81
2023/12/21 04:28:28;;;;;;;3.30;2.08;;;8.40;99.90;;;;;;5006761;28;20045;-81
2023/12/21 04:30:54;;;;;;;6.25;2.25;;;8.30;99.90;;;;;;4991404;28;20032;-80
2023/12/21 04:33:27;;;;;;;2.85;1.38;;;8.40;99.90;;;;;;4995174;28;20045;-81
2023/12/21 04:35:52;;;;;;;2.10;1.50;;;8.40;99.90;;;;;;5007611;28;20472;-81
2023/12/21 04:38:19;;;;;;;3.63;2.05;;;8.40;99.90;;;;;;5009853;28;20117;-81
2023/12/21 04:40:44;;;;;;;2.72;2.05;;;8.40;99.90;;;;;;5015246;28;20061;-81
2023/12/21 04:43:10;;;;;;;4.15;2.03;;;8.40;99.90;;;;;;5005689;28;20049;-81
2023/12/21 04:45:36;;;;;;;3.65;1.45;;;8.40;99.90;;;;;;5013890;28;20033;-81
2023/12/21 04:48:03;;;;;;;2.20;1.80;;;8.40;99.90;;;;;;4988950;28;20451;-81
2023/12/21 04:50:29;;;;;;;2.25;2.03;;;8.40;99.90;;;;;;4991202;28;20459;-80
2023/12/21 04:52:55;;;;;;;3.08;2.28;;;8.40;99.90;;;;;;5005712;28;20112;-80
2023/12/21 04:55:25;;;;;;;2.85;1.45;;;8.40;99.90;;;;;;5008267;28;20556;-81
2023/12/21 04:57:51;;;;;;;3.15;1.30;;;8.40;99.90;;;;;;5007512;28;20044;-81
2023/12/21 05:00:17;;;;;;;2.80;1.60;;;8.40;99.90;;;;;;5003911;28;20045;-81
2023/12/21 05:02:42;;;;;;;1.48;1.00;;;8.40;99.90;;;;;;5008332;28;20116;-81
2023/12/21 05:05:08;;;;;;;2.25;1.30;;;8.40;99.90;;;;;;4990585;28;20397;-82
2023/12/21 05:07:33;;;;;;;1.85;1.25;;;8.40;99.90;;;;;;5008576;28;20021;-81
2023/12/21 05:10:00;;;;;;;1.70;1.00;;;8.40;99.90;;;;;;5004494;28;20041;-81
2023/12/21 05:12:26;;;;;;;1.05;0.77;;;8.50;99.90;;;;;;5022228;28;20090;-81
2023/12/21 05:14:52;;;;;;;3.00;0.98;;;8.40;99.90;;;;;;5026556;28;20060;-81
2023/12/21 05:17:18;;;;;;;1.90;1.17;;;8.40;99.90;;;;;;5007266;28;20548;-81
2023/12/21 05:19:44;;;;;;;2.03;1.42;;;8.50;99.90;;;;;;5007027;28;20045;-81
2023/12/21 05:22:10;;;;;;;1.83;1.20;;;8.40;99.90;;;;;;5023617;28;20480;-81
2023/12/21 05:24:38;;;;;;;2.40;1.35;;;8.40;99.90;;;;;;5023067;28;20086;-80
2023/12/21 05:27:04;;;;;;;1.70;0.82;;;8.50;99.90;;;;;;5005765;28;20028;-81
2023/12/21 05:29:29;;;;;;;1.92;1.23;;;8.50;99.90;;;;;;5006677;28;20049;-81
2023/12/21 05:31:55;;;;;;;1.70;1.33;;;8.50;99.90;;;;;;4992188;28;20778;-80
2023/12/21 05:34:20;;;;;;;1.30;1.17;;;8.60;99.90;;;;;;5022797;28;20033;-81
2023/12/21 05:36:46;;;;;;;1.25;0.93;;;8.50;99.90;;;;;;4992180;28;20435;-81
2023/12/21 05:39:12;;;;;;;1.30;1.20;;;8.50;99.90;;;;;;4991866;28;20443;-80
2023/12/21 05:41:37;;;;;;;2.13;1.30;;;8.50;99.90;;;;;;5006452;28;20098;-80
2023/12/21 05:44:03;;;;;;;5.28;0.93;;;8.50;99.90;;;;;;5006074;28;20061;-81
2023/12/21 05:46:28;;;;;;;4.88;1.58;;;8.50;99.90;;;;;;5004857;28;20523;-81
2023/12/21 05:48:54;;;;;;;5.65;1.25;;;8.50;99.90;;;;;;5007494;28;20098;-81
2023/12/21 05:51:19;;;;;;;3.78;1.98;;;8.50;99.90;;;;;;5006441;28;20102;-81
2023/12/21 05:53:45;;;;;;;6.57;1.77;;;8.50;99.90;;;;;;5007587;28;20045;-81
2023/12/21 05:56:11;;;;;;;2.25;1.35;;;8.50;99.90;;;;;;5008707;28;20035;-81
2023/12/21 05:58:38;;;;;;;4.18;2.50;;;8.50;99.90;;;;;;5007714;28;20041;-80
2023/12/21 06:01:04;;;;;;;3.60;1.60;;;8.50;99.90;;;;;;5023529;28;20550;-80
2023/12/21 06:03:30;;;;;;;3.58;2.28;;;8.50;99.90;;;;;;5025159;28;20045;-80
2023/12/21 06:05:55;;;;;;;4.63;2.35;;;8.50;99.90;;;;;;4992524;28;20405;-80
2023/12/21 06:08:21;;;;;;;3.65;2.30;;;8.50;99.90;;;;;;5005998;28;20045;-80
2023/12/21 06:10:47;;;;;;;3.13;1.70;;;8.50;99.90;;;;;;5007994;28;20115;-80
2023/12/21 06:13:12;;;;;;;5.70;2.47;;;8.60;99.90;;;;;;5003927;28;20472;-81
2023/12/21 06:15:38;;;;;;;3.78;2.05;;;8.60;99.90;;;;;;4988252;28;20166;-80
2023/12/21 06:18:06;;;;;;;4.72;2.97;;;8.50;99.90;;;;;;5003394;28;20087;-81
2023/12/21 06:20:35;;;;;;;3.85;2.10;;;8.50;99.90;;;;;;5008162;28;20037;-81
2023/12/21 06:23:00;;;;;;;2.05;1.05;;;8.60;99.90;;;;;;5007172;28;21566;-81
2023/12/21 06:25:26;;;;;;;9.80;2.10;;;8.50;99.90;;;;;;5007415;28;20119;-81
2023/12/21 06:27:51;;;;;;;4.97;2.10;;;8.60;99.90;;;;;;5008427;28;20064;-80
2023/12/21 06:30:17;;;;;;;8.25;2.35;;;8.60;99.90;;;;;;4991772;28;20135;-81
2023/12/21 06:32:43;;;;;;;4.57;1.65;;;8.60;99.90;;;;;;5005026;28;20029;-80
2023/12/21 06:35:10;;;;;;;4.80;2.72;;;8.60;99.90;;;;;;4994160;28;20036;-80
2023/12/21 06:37:35;;;;;;;6.45;2.55;;;8.60;99.90;;;;;;4997928;28;20052;-80
2023/12/21 06:40:04;;;;;;;4.18;2.85;;;8.60;99.90;;;;;;5010452;28;20393;-81
2023/12/21 06:42:30;;;;;;;4.70;1.98;;;8.60;99.90;;;;;;5012929;28;20045;-80
2023/12/21 06:44:56;;;;;;;7.35;3.80;;;8.60;99.90;;;;;;5032307;28;20385;-80
2023/12/21 06:47:22;;;;;;;9.60;3.05;;;8.70;99.90;;;;;;4998924;28;20037;-80
2023/12/21 06:49:48;;;;;;;5.13;3.28;;;8.60;99.90;;;;;;4997259;28;20029;-81
2023/12/21 06:52:13;;;;;;;5.93;2.95;;;8.60;99.90;;;;;;5030905;28;20032;-81
2023/12/21 06:54:39;;;;;;;8.57;3.55;;;8.60;99.90;;;;;;4996872;28;20552;-81
2023/12/21 06:57:04;;;;;;;6.32;3.30;;;8.60;99.90;;;;;;5016023;28;20501;-81
2023/12/21 06:59:30;;;;;;;7.68;3.67;;;8.70;99.90;;;;;;4997979;28;20402;-82
2023/12/21 07:01:56;;;;;;;7.90;4.70;;;8.70;99.90;;;;;;5033211;28;20062;-80
2023/12/21 07:04:22;;;;;;;9.63;4.63;;;8.60;99.90;;;;;;5014106;28;20052;-81
2023/12/21 07:06:47;;;;;;;10.82;4.00;;;8.70;99.90;;;;;;5028786;28;20098;-81
2023/12/21 07:09:17;;;;;;;8.05;4.13;;;8.70;99.90;;;;;;4985000;28;20650;-82
2023/12/21 07:11:43;;;;;;;9.85;4.13;;;8.70;99.90;;;;;;5030199;28;20044;-82
2023/12/21 07:14:08;;;;;;;12.70;5.13;;;8.70;99.90;;;;;;4998080;28;20037;-82
2023/12/21 07:16:34;;;;;;;11.95;5.35;;;8.70;99.90;;;;;;5013258;28;20032;-82
2023/12/21 07:19:01;;;;;;;11.05;3.58;;;8.80;99.90;;;;;;5009829;28;20139;-82
2023/12/21 07:21:27;;;;;;;10.07;5.53;;;8.60;99.90;;;;;;4996197;28;20037;-83
2023/12/21 07:23:56;;;;;;;5.13;3.45;;;8.60;99.90;;;;;;5016655;28;20045;-83
2023/12/21 07:26:26;;;;;;;6.78;3.58;;;8.70;99.90;;;;;;5028078;28;20037;-82
2023/12/21 07:28:52;;;;;;;7.90;3.30;;;8.70;99.90;;;;;;5028209;28;20037;-84
2023/12/21 07:31:18;;;;;;;7.70;4.97;;;8.70;99.90;;;;;;4996926;28;20036;-83
2023/12/21 07:33:44;;;;;;;12.27;3.17;;;8.70;99.90;;;;;;4993356;28;20397;-83
2023/12/21 07:36:10;;;;;;;4.97;2.67;;;8.70;99.90;;;;;;4994069;28;20044;-83
2023/12/21 07:38:37;;;;;;;6.35;2.53;;;8.70;99.90;;;;;;4996413;28;20037;-83
2023/12/21 07:41:05;;;;;;;4.57;2.25;;;8.70;99.90;;;;;;4993507;28;20450;-83
2023/12/21 07:43:31;;;;;;;7.15;3.63;;;8.70;99.90;;;;;;5008803;28;20033;-82
2023/12/21 07:45:58;;;;;;;5.97;2.50;;;8.70;99.90;;;;;;5013822;28;20041;-82
2023/12/21 07:48:25;;;;;;;6.63;3.15;;;8.80;99.90;;;;;;4996317;28;20036;-83
2023/12/21 07:50:54;;;;;;;11.38;2.70;;;8.80;99.90;;;;;;5009035;28;20037;-82
2023/12/21 07:53:24;;;;;;;9.13;3.10;;;8.80;99.90;;;;;;5006666;28;20036;-82
2023/12/21 07:55:52;;;;;;;10.35;3.00;;;8.80;99.90;;;;;;4969978;28;20021;-82
2023/12/21 07:58:18;;;;;;;7.22;3.40;;;8.80;99.90;;;;;;5007366;28;20029;-82
2023/12/21 08:00:44;;;;;;;3.28;1.90;;;8.80;99.90;;;;;;5005451;28;20040;-82
2023/12/21 08:03:09;;;;;;;4.93;3.13;;;8.80;99.90;;;;;;5008562;28;20033;-82
2023/12/21 08:05:38;;;;;;;8.82;5.32;;;8.70;99.90;;;;;;5005663;28;20025;-82
2023/12/21 08:08:04;;;;;;;6.35;3.25;;;8.80;99.90;;;;;;5021870;28;20507;-83
2023/12/21 08:10:30;;;;;;;5.00;3.28;;;8.80;99.90;;;;;;5010558;28;20033;-84
2023/12/21 08:12:56;;;;;;;11.00;3.72;;;8.80;99.90;;;;;;5006528;28;20025;-83
2023/12/21 08:15:21;;;;;;;9.82;4.05;;;8.80;99.90;;;;;;4986419;28;20057;-84
2023/12/21 08:17:51;;;;;;;8.45;4.20;;;8.80;99.90;;;;;;5004105;28;20060;-83
2023/12/21 08:20:17;;;;;;;11.82;4.30;;;8.70;99.90;;;;;;5025163;28;20065;-82
2023/12/21 08:22:44;;;;;;;9.90;3.97;;;8.80;99.90;;;;;;4993485;28;20060;-82
2023/12/21 08:25:09;;;;;;;6.55;4.20;;;8.80;99.90;;;;;;5009711;28;20496;-82
2023/12/21 08:27:35;;;;;;;15.75;3.97;;;8.80;99.90;;;;;;5010380;28;20031;-82
2023/12/21 08:30:02;;;;;;;8.93;3.63;;;8.80;99.90;;;;;;5011949;28;20040;-82
2023/12/21 08:32:27;;;;;;;6.13;2.70;;;8.80;99.90;;;;;;4993807;28;20080;-82
2023/12/21 08:34:53;;;;;;;8.82;3.83;;;8.80;99.90;;;;;;5008903;28;20516;-82
2023/12/21 08:37:18;;;;;;;8.65;2.85;;;8.80;99.90;;;;;;5008581;28;20033;-82
2023/12/21 08:39:45;;;;;;;7.80;3.15;;;8.90;99.90;;;;;;5011102;28;20163;-81
2023/12/21 08:42:10;;;;;;;11.10;3.33;;;8.90;99.90;;;;;;5019845;28;20122;-82
2023/12/21 08:44:38;;;;;;;4.70;2.33;;;8.90;99.90;;;;;;5016961;28;20115;-82
2023/12/21 08:47:07;;;;;;;4.95;1.98;;;8.80;99.90;;;;;;5005154;28;20039;-82
2023/12/21 08:49:33;;;;;;;5.40;1.90;;;8.90;99.90;;;;;;4990933;28;20090;-82
2023/12/21 08:52:03;;;;;;;6.95;3.10;;;8.90;99.90;;;;;;5012532;28;20074;-82
2023/12/21 08:54:29;;;;;;;5.13;1.90;;;8.90;99.90;;;;;;5008630;28;20069;-83
2023/12/21 08:56:55;;;;;;;4.15;2.53;;;8.90;99.90;;;;;;4995652;28;20053;-83
2023/12/21 08:59:21;;;;;;;8.30;2.30;;;8.90;99.90;;;;;;5008910;28;20041;-83
2023/12/21 09:01:47;;;;;;;5.55;2.53;;;8.90;99.90;;;;;;5025264;28;20083;-83
2023/12/21 09:04:12;;;;;;;7.90;4.00;;;9.00;99.90;;;;;;5009295;28;20033;-84
2023/12/21 09:06:38;;;;;;;5.35;2.38;;;9.00;99.90;;;;;;4999924;28;20302;-83
2023/12/21 09:09:13;;;;;;;7.32;2.47;;;9.00;99.90;;;;;;4995692;28;20048;-83
2023/12/21 09:11:39;;;;;;;3.80;1.80;;;9.00;99.90;;;;;;4987064;28;20032;-83
2023/12/21 09:14:04;;;;;;;3.60;2.17;;;9.00;99.90;;;;;;5013819;28;20026;-84
2023/12/21 09:16:30;;;;;;;5.40;2.00;;;9.00;99.90;;;;;;5011989;28;20366;-84
2023/12/21 09:18:56;;;;;;;3.95;1.45;;;9.00;99.90;;;;;;5026410;28;20041;-83
2023/12/21 09:21:21;;;;;;;3.35;1.80;;;9.00;99.90;;;;;;5009745;28;20090;-83
2023/12/21 09:23:47;;;;;;;5.45;1.27;;;9.00;99.90;;;;;;5007269;28;20036;-84
2023/12/21 09:26:13;;;;;;;5.03;1.63;;;9.00;99.90;;;;;;5011955;28;20432;-84
2023/12/21 09:28:39;;;;;;;6.65;1.70;;;9.00;99.90;;;;;;5008568;28;20524;-87
2023/12/21 09:31:05;;;;;;;4.95;1.42;;;9.00;99.90;;;;;;5008708;28;20036;-84
2023/12/21 09:33:33;;;;;;;3.85;1.48;;;9.00;99.90;;;;;;5028016;28;20044;-84
2023/12/21 09:35:59;;;;;;;6.25;1.70;;;9.10;99.90;;;;;;5009492;28;20040;-83
2023/12/21 09:38:25;;;;;;;1.73;1.00;;;9.10;99.90;;;;;;5008211;28;20041;-84
2023/12/21 09:44:16;;;;;;;1.58;1.20;;;9.10;99.90;;;;;;5034277;28;20094;-83
2023/12/21 09:46:44;;;;;;;3.28;1.38;;;9.10;99.90;;;;;;5008552;28;20055;-84
2023/12/21 09:49:09;;;;;;;5.55;1.55;;;9.10;99.90;;;;;;4993354;28;20041;-84
2023/12/21 09:51:36;;;;;;;2.53;0.98;;;9.10;99.90;;;;;;5006394;28;20037;-84
2023/12/21 09:54:02;;;;;;;1.92;0.77;;;9.10;99.90;;;;;;5008339;28;20037;-83
2023/12/21 09:56:27;;;;;;;2.60;0.90;;;9.10;99.90;;;;;;4996758;28;20036;-84
2023/12/21 09:58:53;;;;;;;7.40;1.60;;;9.20;99.90;;;;;;5010633;28;20040;-84
2023/12/21 10:01:18;;;;;;;5.03;1.17;;;9.20;99.90;;;;;;4994102;28;20029;-84
2023/12/21 10:03:44;;;;;;;1.80;0.95;;;9.20;99.90;;;;;;4991238;28;20163;-84
2023/12/21 10:06:11;;;;;;;2.28;0.77;;;9.20;99.90;;;;;;4988655;28;20044;-84
2023/12/21 10:08:36;;;;;;;5.35;1.17;;;9.20;99.90;;;;;;4993912;28;20056;-83
2023/12/21 10:11:08;;;;;;;1.40;1.00;;;9.20;99.90;;;;;;5012198;28;20057;-84
2023/12/21 10:13:34;;;;;;;2.30;0.70;;;9.20;99.90;;;;;;4995694;28;20049;-84
2023/12/21 10:16:00;;;;;;;1.95;0.82;;;9.20;99.90;;;;;;5015144;28;20032;-83
2023/12/21 10:18:26;;;;;;;3.60;1.15;;;9.20;99.90;;;;;;5008380;28;20421;-84
2023/12/21 10:20:53;;;;;;;0.77;0.70;;;9.30;99.90;;;;;;4993352;28;20525;-84
2023/12/21 10:23:20;;;;;;;0.80;0.70;;;9.30;99.90;;;;;;4985713;28;20149;-84
2023/12/21 10:25:46;;;;;;;2.22;1.20;;;9.30;99.90;;;;;;5008778;28;20461;-83
2023/12/21 10:28:12;;;;;;;1.98;1.33;;;9.30;99.90;;;;;;5010055;28;20033;-88
2023/12/21 10:30:38;;;;;;;0.47;0.47;;;9.30;99.90;;;;;;5005913;28;20400;-83
2023/12/21 10:33:03;;;;;;;3.45;0.68;;;9.30;99.90;;;;;;4993786;28;20396;-84
2023/12/21 10:35:29;;;;;;;1.23;1.13;;;9.30;99.90;;;;;;5008414;28;20040;-84
2023/12/21 10:37:55;;;;;;;0.82;0.55;;;9.30;99.90;;;;;;5007090;28;20050;-85
2023/12/21 10:40:23;;;;;;;1.98;0.75;;;9.30;99.90;;;;;;5008497;28;20559;-81
2023/12/21 10:42:51;;;;;;;0.60;0.40;;;9.40;99.90;;;;;;5007313;28;20052;-82
2023/12/21 10:45:25;;;;;;;2.97;0.80;;;9.40;99.90;;;;;;5004087;28;20400;-82
2023/12/21 10:48:01;;;;;;;1.25;0.90;;;9.40;99.90;;;;;;5003975;28;20033;-81
2023/12/21 10:50:28;;;;;;;0.55;0.55;;;9.40;99.90;;;;;;5020712;28;20832;-81
2023/12/21 10:52:53;;;;;;;1.45;0.75;;;9.40;99.90;;;;;;5004660;28;20131;-84
2023/12/21 10:55:19;;;;;;;1.40;0.90;;;9.40;99.90;;;;;;5003938;28;20033;-83
2023/12/21 10:57:48;;;;;;;3.08;1.40;;;9.40;99.90;;;;;;5008629;28;20029;-85
2023/12/21 11:00:16;;;;;;;1.65;1.10;;;9.50;99.90;;;;;;5003467;28;20401;-83
2023/12/21 11:02:46;;;;;;;1.30;1.20;;;9.50;99.90;;;;;;5021066;28;20093;-84
2023/12/21 11:05:22;;;;;;;2.30;1.27;;;9.40;99.90;;;;;;5006892;28;20455;-84
2023/12/21 11:07:53;;;;;;;2.40;1.27;;;9.50;99.90;;;;;;5022027;28;20481;-83
2023/12/21 11:10:21;;;;;;;3.63;2.17;;;9.50;99.90;;;;;;5009806;28;20492;-84
2023/12/21 11:12:47;;;;;;;1.83;1.27;;;9.50;99.90;;;;;;4989829;28;20061;-84
2023/12/21 11:15:14;;;;;;;3.33;1.23;;;9.50;99.90;;;;;;5021271;28;20037;-84
2023/12/21 11:17:41;;;;;;;3.25;1.60;;;9.60;99.90;;;;;;4995375;28;20064;-84
2023/12/21 11:20:08;;;;;;;2.22;2.03;;;9.60;99.90;;;;;;5010284;28;20175;-84
2023/12/21 11:22:38;;;;;;;2.15;1.65;;;9.50;99.90;;;;;;5015557;28;20362;-84
2023/12/21 11:25:04;;;;;;;4.60;2.65;;;9.60;99.90;;;;;;5027593;28;20037;-84
2023/12/21 11:27:36;;;;;;;2.83;2.45;;;9.60;99.90;;;;;;4996879;28;20082;-84
2023/12/21 11:30:15;;;;;;;6.47;2.35;;;9.60;99.90;;;;;;5014958;28;20457;-84
2023/12/21 11:32:43;;;;;;;7.10;2.75;;;9.60;99.90;;;;;;5015044;28;20167;-83
2023/12/21 11:35:17;;;;;;;6.20;2.90;;;9.60;99.90;;;;;;5011249;28;20037;-82
2023/12/21 11:37:43;;;;;;;4.30;2.17;;;9.60;99.90;;;;;;4992608;28;20772;-81
2023/12/21 11:40:11;;;;;;;3.92;2.88;;;9.60;99.90;;;;;;5009988;28;20041;-81
2023/12/21 11:42:37;;;;;;;5.78;2.80;;;9.60;99.90;;;;;;5016881;28;20033;-82
2023/12/21 11:45:07;;;;;;;4.43;2.22;;;9.60;99.90;;;;;;4990984;28;20770;-82
2023/12/21 11:47:33;;;;;;;9.40;2.72;;;9.60;99.90;;;;;;5013226;28;20043;-81
2023/12/21 11:50:08;;;;;;;7.28;2.55;;;9.70;99.90;;;;;;5010504;28;20040;-82
2023/12/21 11:52:33;;;;;;;6.63;2.33;;;9.70;99.90;;;;;;5034257;28;20041;-83
2023/12/21 11:54:59;;;;;;;11.90;2.80;;;9.70;99.90;;;;;;5009697;28;20033;-83
2023/12/21 11:57:31;;;;;;;2.38;1.60;;;9.70;99.90;;;;;;4993422;28;20401;-84
2023/12/21 12:00:16;;;;;;;6.95;2.22;;;9.70;99.90;;;;;;5011539;28;20079;-83
2023/12/21 12:02:44;;;;;;;7.07;2.38;;;9.70;99.90;;;;;;5012131;28;20508;-82
2023/12/21 12:05:10;;;;;;;8.75;1.55;;;9.70;99.90;;;;;;5028651;28;20040;-83
2023/12/21 12:07:41;;;;;;;9.55;2.05;;;9.70;99.90;;;;;;5026829;28;20423;-83
2023/12/21 12:10:07;;;;;;;3.42;1.30;;;9.80;99.90;;;;;;4992500;28;20037;-83
2023/12/21 12:12:33;;;;;;;3.05;1.17;;;9.80;99.90;;;;;;5026933;28;20029;-83
2023/12/21 12:14:59;;;;;;;4.28;1.30;;;9.90;99.90;;;;;;4661977;28;10000215;-83
2023/12/21 12:17:28;;;;;;;3.08;0.95;;;9.90;99.90;;;;;;4994402;28;20059;-83
2023/12/21 12:19:58;;;;;;;2.67;1.10;;;9.90;99.90;;;;;;5009235;28;20400;-83
2023/12/21 12:22:24;;;;;;;4.78;1.23;;;9.90;99.90;;;;;;5010374;28;20119;-84
2023/12/21 12:24:50;;;;;;;5.30;1.38;;;9.90;99.90;;;;;;5012022;28;20115;-84
2023/12/21 12:27:17;;;;;;;1.40;0.63;;;9.90;99.90;;;;;;5029191;28;20029;-84
2023/12/21 12:29:42;;;;;;;4.32;0.70;;;9.90;99.90;;;;;;5030633;28;20065;-84
2023/12/21 12:32:17;;;;;;;1.60;0.60;;;9.90;99.90;;;;;;5015942;28;20087;-84
2023/12/21 12:34:43;;;;;;;4.22;0.57;;;10.00;99.90;;;;;;5018054;28;20042;-84
2023/12/21 12:37:09;;;;;;;1.65;0.73;;;10.00;99.90;;;;;;5013329;28;20025;-84
2023/12/21 12:39:35;;;;;;;1.08;0.70;;;10.00;99.90;;;;;;5030415;28;20125;-84
2023/12/21 12:42:03;;;;;;;1.95;0.50;;;10.10;99.90;;;;;;5000086;28;20153;-84
2023/12/21 12:44:29;;;;;;;2.78;0.90;;;10.10;99.90;;;;;;5003922;28;20054;-83
2023/12/21 12:46:54;;;;;;;3.63;1.05;;;10.10;99.90;;;;;;5015936;28;20067;-83
2023/12/21 12:49:22;;;;;;;1.08;0.43;;;10.10;99.90;;;;;;5013552;28;20297;-82
2023/12/21 12:51:47;;;;;;;1.30;0.52;;;10.20;99.90;;;;;;5010861;28;20551;-83
2023/12/21 12:54:13;;;;;;;2.92;0.63;;;10.20;99.90;;;;;;5010599;28;20040;-83